createdAt,value
2023-01-10T00:01:06.417Z,1.52
2023-01-10T00:03:33.968Z,1.40
2023-01-10T00:06:01.496Z,1.42
2023-01-10T00:08:29.036Z,1.40
2023-01-10T00:10:56.611Z,1.50
2023-01-10T00:13:24.204Z,1.42
2023-01-10T00:15:52.830Z,1.58
2023-01-10T00:18:20.698Z,1.60
2023-01-10T00:20:49.520Z,1.70
2023-01-10T00:23:18.353Z,1.42
2023-01-10T00:25:46.101Z,1.33
2023-01-10T00:28:20.093Z,1.50
2023-01-10T00:30:51.261Z,1.48
2023-01-10T00:33:19.648Z,1.57
2023-01-10T00:35:47.968Z,1.67
2023-01-10T00:38:15.723Z,1.67
2023-01-10T00:40:43.261Z,1.30
2023-01-10T00:43:30.081Z,1.60
2023-01-10T00:45:58.033Z,1.30
2023-01-10T00:48:25.641Z,1.35
2023-01-10T00:50:53.312Z,1.40
2023-01-10T00:53:21.040Z,1.23
2023-01-10T00:55:48.574Z,1.27
2023-01-10T00:58:16.548Z,1.20
2023-01-10T01:00:51.074Z,1.17
2023-01-10T01:03:20.146Z,1.30
2023-01-10T01:05:49.011Z,1.27
2023-01-10T01:08:17.205Z,1.20
2023-01-10T01:10:44.756Z,1.08
2023-01-10T01:13:16.941Z,1.23
2023-01-10T01:15:44.674Z,1.35
2023-01-10T01:18:17.051Z,1.40
2023-01-10T01:20:48.079Z,1.50
2023-01-10T01:23:16.063Z,1.38
2023-01-10T01:25:43.658Z,1.30
2023-01-10T01:28:13.162Z,1.30
2023-01-10T01:30:40.849Z,1.50
2023-01-10T01:33:08.404Z,1.30
2023-01-10T01:35:36.307Z,1.50
2023-01-10T01:38:03.923Z,1.50
2023-01-10T01:40:31.500Z,1.40
2023-01-10T01:42:59.056Z,1.52
2023-01-10T01:45:33.515Z,1.50
2023-01-10T01:48:10.062Z,1.58
2023-01-10T01:50:40.414Z,1.10
2023-01-10T01:53:26.553Z,1.40
2023-01-10T01:55:56.218Z,1.50
2023-01-10T01:58:27.579Z,1.27
2023-01-10T02:00:55.369Z,1.00
2023-01-10T02:03:23.121Z,1.25
2023-01-10T02:05:50.702Z,1.10
2023-01-10T02:08:18.297Z,1.20
2023-01-10T02:10:48.792Z,1.00
2023-01-10T02:13:18.797Z,1.30
2023-01-10T02:15:46.400Z,1.20
2023-01-10T02:18:14.285Z,1.20
2023-01-10T02:20:48.441Z,1.30
2023-01-10T02:23:15.957Z,1.55
2023-01-10T02:25:43.491Z,0.95
2023-01-10T02:28:10.983Z,1.38
2023-01-10T02:30:41.565Z,1.38
2023-01-10T02:33:15.284Z,1.30
2023-01-10T02:35:46.828Z,1.38
2023-01-10T02:38:29.688Z,1.10
2023-01-10T02:40:57.296Z,1.02
2023-01-10T02:43:27.539Z,1.40
2023-01-10T02:45:55.089Z,1.10
2023-01-10T02:48:23.018Z,1.00
2023-01-10T02:50:53.046Z,0.98
2023-01-10T02:53:24.177Z,0.98
2023-01-10T02:55:57.534Z,0.82
2023-01-10T02:58:43.742Z,0.90
2023-01-10T03:01:14.605Z,1.08
2023-01-10T03:04:03.449Z,1.10
2023-01-10T03:06:50.769Z,0.85
2023-01-10T03:09:40.749Z,0.98
2023-01-10T03:12:14.774Z,1.20
2023-01-10T03:14:43.371Z,1.10
2023-01-10T03:17:12.395Z,0.98
2023-01-10T03:19:44.198Z,1.10
2023-01-10T03:24:52.299Z,1.10
2023-01-10T03:27:38.507Z,1.00
2023-01-10T03:30:24.480Z,0.95
2023-01-10T03:32:52.196Z,1.02
2023-01-10T03:35:21.327Z,1.08
2023-01-10T03:37:57.157Z,1.00
2023-01-10T03:40:43.980Z,0.95
2023-01-10T03:43:39.702Z,1.20
2023-01-10T03:46:12.689Z,1.20
2023-01-10T03:48:42.875Z,0.90
2023-01-10T03:51:10.726Z,0.98
2023-01-10T03:53:38.952Z,0.90
2023-01-10T03:56:07.039Z,1.20
2023-01-10T03:58:34.701Z,1.13
2023-01-10T04:01:02.417Z,1.20
2023-01-10T04:03:29.990Z,0.98
2023-01-10T04:05:57.511Z,1.15
2023-01-10T04:08:25.031Z,1.38
2023-01-10T04:10:52.570Z,1.30
2023-01-10T04:13:20.084Z,1.20
2023-01-10T04:15:47.596Z,1.15
2023-01-10T04:18:15.992Z,1.30
2023-01-10T04:20:43.527Z,1.20
2023-01-10T04:23:11.090Z,1.40
2023-01-10T04:25:38.610Z,1.20
2023-01-10T04:28:06.229Z,1.20
2023-01-10T04:30:33.797Z,1.38
2023-01-10T04:33:01.353Z,1.48
2023-01-10T04:35:28.866Z,1.50
2023-01-10T04:37:56.400Z,1.35
2023-01-10T04:40:23.951Z,1.30
2023-01-10T04:42:51.651Z,1.45
2023-01-10T04:45:20.341Z,1.30
2023-01-10T04:47:56.025Z,1.38
2023-01-10T04:50:23.853Z,1.50
2023-01-10T04:52:51.478Z,1.50
2023-01-10T04:55:19.119Z,1.33
2023-01-10T04:57:46.640Z,1.50
2023-01-10T05:00:14.336Z,1.85
2023-01-10T05:02:44.225Z,1.90
2023-01-10T05:05:13.278Z,1.73
2023-01-10T05:07:41.250Z,2.15
2023-01-10T05:10:09.302Z,1.90
2023-01-10T05:12:36.908Z,1.75
2023-01-10T05:15:04.773Z,1.90
2023-01-10T05:17:32.338Z,1.80
2023-01-10T05:19:59.989Z,1.90
2023-01-10T05:22:27.563Z,1.88
2023-01-10T05:24:55.139Z,2.05
2023-01-10T05:27:22.706Z,1.92
2023-01-10T05:29:50.233Z,2.13
2023-01-10T05:32:17.836Z,2.03
2023-01-10T05:34:45.365Z,1.90
2023-01-10T05:37:13.130Z,1.92
2023-01-10T05:39:41.335Z,1.70
2023-01-10T05:42:08.857Z,2.08
2023-01-10T05:44:36.396Z,1.95
2023-01-10T05:47:03.985Z,1.88
2023-01-10T05:49:33.432Z,1.67
2023-01-10T05:52:01.630Z,2.08
2023-01-10T05:54:29.712Z,1.55
2023-01-10T05:56:57.713Z,1.50
2023-01-10T05:59:28.724Z,1.50
2023-01-10T06:01:56.620Z,1.80
2023-01-10T06:04:24.238Z,1.60
2023-01-10T06:06:51.775Z,1.63
2023-01-10T06:09:19.309Z,1.40
2023-01-10T06:11:46.918Z,1.35
2023-01-10T06:14:19.023Z,1.42
2023-01-10T06:16:47.101Z,1.25
2023-01-10T06:19:14.821Z,1.30
2023-01-10T06:21:42.556Z,1.20
2023-01-10T06:24:10.329Z,1.30
2023-01-10T06:26:37.893Z,1.13
2023-01-10T06:29:05.433Z,1.50
2023-01-10T06:31:33.191Z,1.05
2023-01-10T06:34:00.757Z,1.50
2023-01-10T06:36:28.357Z,1.20
2023-01-10T06:38:56.080Z,1.35
2023-01-10T06:41:23.686Z,1.30
2023-01-10T06:43:51.273Z,1.25
2023-01-10T06:46:19.867Z,1.27
2023-01-10T06:48:48.188Z,1.60
2023-01-10T06:51:18.102Z,1.10
2023-01-10T06:56:14.875Z,1.30
2023-01-10T06:58:44.763Z,1.13
2023-01-10T07:01:16.748Z,1.33
2023-01-10T07:03:44.822Z,1.08
2023-01-10T07:06:12.855Z,1.30
2023-01-10T07:08:41.638Z,1.20
2023-01-10T07:11:10.005Z,1.40
2023-01-10T07:13:37.907Z,1.42
2023-01-10T07:16:06.457Z,1.40
2023-01-10T07:18:37.685Z,1.30
2023-01-10T07:21:05.526Z,1.55
2023-01-10T07:23:33.257Z,1.40
2023-01-10T07:26:05.698Z,1.83
2023-01-10T07:28:34.513Z,1.45
2023-01-10T07:31:02.800Z,1.77
2023-01-10T07:33:31.084Z,1.40
2023-01-10T07:35:58.931Z,1.77
2023-01-10T07:38:26.465Z,1.50
2023-01-10T07:40:54.188Z,1.80
2023-01-10T07:43:21.722Z,2.00
2023-01-10T07:45:49.394Z,2.10
2023-01-10T07:48:16.967Z,2.13
2023-01-10T07:50:44.642Z,2.60
2023-01-10T07:53:12.204Z,2.63
2023-01-10T07:55:40.077Z,2.30
2023-01-10T07:58:08.344Z,2.63
2023-01-10T08:00:36.077Z,2.22
2023-01-10T08:03:03.860Z,2.50
2023-01-10T08:05:31.453Z,2.42
2023-01-10T08:08:04.317Z,1.98
2023-01-10T08:10:31.863Z,2.58
2023-01-10T08:13:03.914Z,2.40
2023-01-10T08:15:37.413Z,2.60
2023-01-10T08:18:05.132Z,2.20
2023-01-10T08:20:32.667Z,2.75
2023-01-10T08:23:00.769Z,3.42
2023-01-10T08:25:28.332Z,2.53
2023-01-10T08:27:56.675Z,2.50
2023-01-10T08:30:24.379Z,2.60
2023-01-10T08:32:52.341Z,2.47
2023-01-10T08:35:20.417Z,2.22
2023-01-10T08:37:51.659Z,2.97
2023-01-10T08:40:19.340Z,2.65
2023-01-10T08:42:47.029Z,2.10
2023-01-10T08:45:17.009Z,2.22
2023-01-10T08:47:44.664Z,2.22
2023-01-10T08:50:13.030Z,1.92
2023-01-10T08:52:40.663Z,2.03
2023-01-10T08:55:08.344Z,2.05
2023-01-10T08:57:36.070Z,2.00
2023-01-10T09:00:04.495Z,2.03
2023-01-10T09:02:32.178Z,2.05
2023-01-10T09:04:59.752Z,1.48
2023-01-10T09:07:27.406Z,1.60
2023-01-10T09:09:55.001Z,1.58
2023-01-10T09:12:41.249Z,1.48
2023-01-10T09:15:09.135Z,1.55
2023-01-10T09:17:36.664Z,0.90
2023-01-10T09:20:06.559Z,1.00
2023-01-10T09:22:34.095Z,1.00
2023-01-10T09:25:01.694Z,1.70
2023-01-10T09:27:29.248Z,1.70
2023-01-10T09:29:56.769Z,1.55
2023-01-10T09:32:24.423Z,1.55
2023-01-10T09:34:51.956Z,1.88
2023-01-10T09:37:19.474Z,1.60
2023-01-10T09:39:47.096Z,1.80
2023-01-10T09:42:18.160Z,2.00
2023-01-10T09:45:04.531Z,2.15
2023-01-10T09:47:41.214Z,2.10
2023-01-10T09:50:27.335Z,2.50
2023-01-10T09:52:56.830Z,2.17
2023-01-10T09:55:43.224Z,2.10
2023-01-10T09:58:16.560Z,2.22
2023-01-10T10:00:53.093Z,2.10
2023-01-10T10:03:26.753Z,1.80
2023-01-10T10:06:03.763Z,1.92
2023-01-10T10:08:38.346Z,2.17
2023-01-10T10:11:26.153Z,2.00
2023-01-10T10:14:12.201Z,1.75
2023-01-10T10:16:58.315Z,1.60
2023-01-10T10:19:41.295Z,1.58
2023-01-10T10:22:15.178Z,1.60
2023-01-10T10:24:51.751Z,1.98
2023-01-10T10:27:23.539Z,1.50
2023-01-10T10:32:30.503Z,1.48
2023-01-10T10:34:58.015Z,1.58
2023-01-10T10:37:33.323Z,1.30
2023-01-10T10:40:03.222Z,1.63
2023-01-10T10:42:32.650Z,1.30
2023-01-10T10:45:02.244Z,1.30
2023-01-10T10:47:33.550Z,1.45
2023-01-10T10:50:20.062Z,1.38
2023-01-10T10:52:56.884Z,1.55
2023-01-10T10:55:30.337Z,1.90
2023-01-10T10:58:01.978Z,2.13
2023-01-10T11:00:30.392Z,1.10
2023-01-10T11:03:04.195Z,1.45
2023-01-10T11:05:39.806Z,1.10
2023-01-10T11:08:13.021Z,1.08
2023-01-10T11:10:41.811Z,1.23
2023-01-10T11:13:24.877Z,1.30
2023-01-10T11:15:54.696Z,0.98
2023-01-10T11:18:25.447Z,1.30
2023-01-10T11:21:00.189Z,1.25
2023-01-10T11:23:37.044Z,1.13
2023-01-10T11:26:06.090Z,1.20
2023-01-10T11:28:34.556Z,1.33
2023-01-10T11:31:03.184Z,1.15
2023-01-10T11:33:32.315Z,1.10
2023-01-10T11:36:10.176Z,1.08
2023-01-10T11:38:37.788Z,1.35
2023-01-10T11:41:06.649Z,1.67
2023-01-10T11:43:40.335Z,1.30
2023-01-10T11:46:20.427Z,1.10
2023-01-10T11:49:08.813Z,1.23
2023-01-10T11:51:53.805Z,1.45
2023-01-10T11:54:23.710Z,1.27
2023-01-10T11:57:07.620Z,1.10
2023-01-10T11:59:35.540Z,1.10
2023-01-10T12:02:05.290Z,1.50
2023-01-10T12:04:37.877Z,1.52
2023-01-10T12:07:09.453Z,1.20
2023-01-10T12:09:47.094Z,1.55
2023-01-10T12:12:28.320Z,1.67
2023-01-10T12:14:59.917Z,0.95
2023-01-10T12:17:30.651Z,1.50
2023-01-10T12:20:03.900Z,1.60
2023-01-10T12:22:32.916Z,1.52
2023-01-10T12:25:05.439Z,1.38
2023-01-10T12:27:33.399Z,1.30
2023-01-10T12:30:06.870Z,1.25
2023-01-10T12:32:40.120Z,1.45
2023-01-10T12:35:11.774Z,1.10
2023-01-10T12:37:56.101Z,1.30
2023-01-10T12:40:49.931Z,1.10
2023-01-10T12:43:52.901Z,1.10
2023-01-10T12:47:00.125Z,0.90
2023-01-10T12:49:24.962Z,1.67
2023-01-10T12:51:54.118Z,1.20
2023-01-10T12:54:24.015Z,1.30
2023-01-10T12:56:52.350Z,1.00
2023-01-10T12:59:37.062Z,1.10
2023-01-10T13:02:17.849Z,1.30
2023-01-10T13:04:48.725Z,1.30
2023-01-10T13:07:16.934Z,1.38
2023-01-10T13:09:45.139Z,1.00
2023-01-10T13:12:21.563Z,1.23
2023-01-10T13:15:07.886Z,0.93
2023-01-10T13:17:51.339Z,1.10
2023-01-10T13:20:24.926Z,1.25
2023-01-10T13:22:55.609Z,1.35
2023-01-10T13:28:17.603Z,1.10
2023-01-10T13:30:51.544Z,0.98
2023-01-10T13:33:25.448Z,1.35
2023-01-10T13:35:54.243Z,1.10
2023-01-10T13:38:33.985Z,0.98
2023-01-10T13:41:28.903Z,1.13
2023-01-10T13:44:06.526Z,1.35
2023-01-10T13:46:35.580Z,1.08
2023-01-10T13:49:03.617Z,1.08
2023-01-10T13:51:32.122Z,1.33
2023-01-10T13:54:00.662Z,1.08
2023-01-10T13:56:32.575Z,1.40
2023-01-10T13:59:19.310Z,1.27
2023-01-10T14:02:12.836Z,1.25
2023-01-10T14:04:46.287Z,1.50
2023-01-10T14:07:18.979Z,1.45
2023-01-10T14:09:47.005Z,2.28
2023-01-10T14:12:17.328Z,1.10
2023-01-10T14:14:50.959Z,1.23
2023-01-10T14:17:21.683Z,1.23
2023-01-10T14:19:57.866Z,1.23
2023-01-10T14:22:27.770Z,1.30
2023-01-10T14:24:55.776Z,1.20
2023-01-10T14:27:23.592Z,1.23
2023-01-10T14:29:53.683Z,1.27
2023-01-10T14:32:48.851Z,1.20
2023-01-10T14:35:18.320Z,1.15
2023-01-10T14:37:48.819Z,1.05
2023-01-10T14:40:27.522Z,1.30
2023-01-10T14:42:58.378Z,1.10
2023-01-10T14:45:35.241Z,1.30
2023-01-10T14:48:21.299Z,1.27
2023-01-10T14:50:48.823Z,1.20
2023-01-10T14:53:29.656Z,1.30
2023-01-10T14:55:58.487Z,1.85
2023-01-10T14:58:26.077Z,1.13
2023-01-10T15:00:55.158Z,0.93
2023-01-10T15:03:24.529Z,0.85
2023-01-10T15:05:53.691Z,1.33
2023-01-10T15:08:22.683Z,1.27
2023-01-10T15:10:51.810Z,0.80
2023-01-10T15:13:20.729Z,1.40
2023-01-10T15:15:49.167Z,1.02
2023-01-10T15:18:46.112Z,0.85
2023-01-10T15:21:14.675Z,1.52
2023-01-10T15:23:43.496Z,1.30
2023-01-10T15:26:14.914Z,1.25
2023-01-10T15:28:43.315Z,1.10
2023-01-10T15:31:11.819Z,1.30
2023-01-10T15:33:43.367Z,1.50
2023-01-10T15:36:18.893Z,1.30
2023-01-10T15:38:47.491Z,1.10
2023-01-10T15:41:22.298Z,1.50
2023-01-10T15:43:51.795Z,1.20
2023-01-10T15:46:20.831Z,1.10
2023-01-10T15:48:56.014Z,1.40
2023-01-10T15:51:28.226Z,1.45
2023-01-10T15:54:03.991Z,1.55
2023-01-10T15:56:41.826Z,1.30
2023-01-10T15:59:23.152Z,1.08
2023-01-10T16:01:55.027Z,1.58
2023-01-10T16:04:22.732Z,1.58
2023-01-10T16:06:53.095Z,1.65
2023-01-10T16:09:21.797Z,2.22
2023-01-10T16:12:09.711Z,1.77
2023-01-10T16:14:37.894Z,1.52
2023-01-10T16:17:08.970Z,1.88
2023-01-10T16:19:36.573Z,1.30
2023-01-10T16:22:04.194Z,1.65
2023-01-10T16:24:36.490Z,1.70
2023-01-10T16:27:05.803Z,1.63
2023-01-10T16:29:34.240Z,1.50
2023-01-10T16:32:01.922Z,1.58
2023-01-10T16:34:29.671Z,1.48
2023-01-10T16:36:57.211Z,1.45
2023-01-10T16:39:24.792Z,1.42
2023-01-10T16:42:11.050Z,1.55
2023-01-10T16:44:38.653Z,1.73
2023-01-10T16:47:07.193Z,1.95
2023-01-10T16:49:34.885Z,1.80
2023-01-10T16:52:03.496Z,1.65
2023-01-10T16:54:31.161Z,1.52
2023-01-10T16:56:58.888Z,1.88
2023-01-10T16:59:26.412Z,1.65
2023-01-10T17:01:55.920Z,1.40
2023-01-10T17:04:29.831Z,1.92
2023-01-10T17:06:57.437Z,1.75
2023-01-10T17:09:26.804Z,1.40
2023-01-10T17:12:01.622Z,2.40
2023-01-10T17:14:33.162Z,1.73
2023-01-10T17:17:02.089Z,2.17
2023-01-10T17:19:29.668Z,2.00
2023-01-10T17:21:57.167Z,1.67
2023-01-10T17:24:24.681Z,1.77
2023-01-10T17:26:52.227Z,1.50
2023-01-10T17:29:20.452Z,1.77
2023-01-10T17:31:49.055Z,1.80
2023-01-10T17:34:16.589Z,1.83
2023-01-10T17:36:44.187Z,2.20
2023-01-10T17:39:11.737Z,2.45
2023-01-10T17:41:39.395Z,2.53
2023-01-10T17:44:07.034Z,2.40
2023-01-10T17:46:34.604Z,2.10
2023-01-10T17:49:02.706Z,2.22
2023-01-10T17:51:30.293Z,2.00
2023-01-10T17:53:58.243Z,2.35
2023-01-10T17:56:25.816Z,1.98
2023-01-10T17:58:53.602Z,2.20
2023-01-10T18:01:24.800Z,2.10
2023-01-10T18:03:53.230Z,2.60
2023-01-10T18:06:25.062Z,1.98
2023-01-10T18:08:53.678Z,2.47
2023-01-10T18:11:22.832Z,1.90
2023-01-10T18:13:50.395Z,1.95
2023-01-10T18:16:18.021Z,1.73
2023-01-10T18:18:45.558Z,3.35
2023-01-10T18:21:14.360Z,2.25
2023-01-10T18:23:41.953Z,2.17
2023-01-10T18:26:10.681Z,1.90
2023-01-10T18:28:43.135Z,2.20
2023-01-10T18:31:12.495Z,2.10
2023-01-10T18:33:40.279Z,2.17
2023-01-10T18:36:08.880Z,2.45
2023-01-10T18:38:37.337Z,2.17
2023-01-10T18:41:04.926Z,2.47
2023-01-10T18:43:32.940Z,2.75
2023-01-10T18:46:01.713Z,2.30
2023-01-10T18:48:29.516Z,2.72
2023-01-10T18:50:58.908Z,2.13
2023-01-10T18:53:26.598Z,2.88
2023-01-10T18:55:57.909Z,2.80
2023-01-10T18:58:26.026Z,2.88
2023-01-10T19:00:53.960Z,2.25
2023-01-10T19:03:21.611Z,2.28
2023-01-10T19:05:49.225Z,2.45
2023-01-10T19:08:16.868Z,2.90
2023-01-10T19:11:07.436Z,2.67
2023-01-10T19:13:32.413Z,3.50
2023-01-10T19:16:12.314Z,2.50
2023-01-10T19:18:40.097Z,3.22
2023-01-10T19:21:13.203Z,4.10
2023-01-10T19:23:41.033Z,3.30
2023-01-10T19:26:08.575Z,3.03
2023-01-10T19:28:36.137Z,3.38
2023-01-10T19:31:05.148Z,2.80
2023-01-10T19:33:34.517Z,3.40
2023-01-10T19:36:08.681Z,3.58
2023-01-10T19:38:36.285Z,4.22
2023-01-10T19:41:04.266Z,3.80
2023-01-10T19:43:33.586Z,3.72
2023-01-10T19:46:05.415Z,3.50
2023-01-10T19:48:37.630Z,2.60
2023-01-10T19:51:08.900Z,3.22
2023-01-10T19:53:37.115Z,3.00
2023-01-10T19:56:09.518Z,3.28
2023-01-10T19:58:37.701Z,3.20
2023-01-10T20:01:13.113Z,3.08
2023-01-10T20:03:42.197Z,3.15
2023-01-10T20:06:13.885Z,2.70
2023-01-10T20:08:41.826Z,2.72
2023-01-10T20:11:10.021Z,3.33
2023-01-10T20:13:38.688Z,2.28
2023-01-10T20:16:06.890Z,2.47
2023-01-10T20:18:34.436Z,3.22
2023-01-10T20:21:04.624Z,2.53
2023-01-10T20:23:32.253Z,2.67
2023-01-10T20:26:02.239Z,2.58
2023-01-10T20:28:30.636Z,2.13
2023-01-10T20:30:58.212Z,2.45
2023-01-10T20:33:26.635Z,2.35
2023-01-10T20:35:57.338Z,2.55
2023-01-10T20:38:25.448Z,2.08
2023-01-10T20:40:59.193Z,2.03
2023-01-10T20:43:27.361Z,2.13
2023-01-10T20:45:55.070Z,2.60
2023-01-10T20:48:22.885Z,2.25
2023-01-10T20:50:50.463Z,2.58
2023-01-10T20:53:18.062Z,2.03
2023-01-10T20:55:53.574Z,2.10
2023-01-10T20:58:26.814Z,2.15
2023-01-10T21:00:54.405Z,1.92
2023-01-10T21:03:21.934Z,2.33
2023-01-10T21:05:50.591Z,2.50
2023-01-10T21:08:18.570Z,2.55
2023-01-10T21:10:46.979Z,2.67
2023-01-10T21:13:14.774Z,2.75
2023-01-10T21:15:43.572Z,2.20
2023-01-10T21:18:11.836Z,2.50
2023-01-10T21:20:42.937Z,2.30
2023-01-10T21:23:10.556Z,2.25
2023-01-10T21:25:38.312Z,2.15
2023-01-10T21:28:09.578Z,2.70
2023-01-10T21:30:37.700Z,2.33
2023-01-10T21:33:05.678Z,2.35
2023-01-10T21:35:33.813Z,2.22
2023-01-10T21:38:01.611Z,2.25
2023-01-10T21:40:29.418Z,2.35
2023-01-10T21:42:56.914Z,1.98
2023-01-10T21:45:24.579Z,2.30
2023-01-10T21:47:52.738Z,1.65
2023-01-10T21:50:22.519Z,1.95
2023-01-10T21:52:50.259Z,1.80
2023-01-10T21:55:17.903Z,1.88
2023-01-10T21:57:45.702Z,1.80
2023-01-10T22:00:13.461Z,1.95
2023-01-10T22:02:42.239Z,1.70
2023-01-10T22:05:11.143Z,1.92
2023-01-10T22:07:38.888Z,2.10
2023-01-10T22:10:07.509Z,1.83
2023-01-10T22:12:36.571Z,1.60
2023-01-10T22:15:04.232Z,1.63
2023-01-10T22:17:31.767Z,1.80
2023-01-10T22:19:59.336Z,1.65
2023-01-10T22:22:26.886Z,1.80
2023-01-10T22:24:54.423Z,2.10
2023-01-10T22:27:21.967Z,2.00
2023-01-10T22:29:49.591Z,1.92
2023-01-10T22:32:17.130Z,1.95
2023-01-10T22:34:44.631Z,1.90
2023-01-10T22:37:12.196Z,1.65
2023-01-10T22:39:39.790Z,1.73
2023-01-10T22:42:07.370Z,1.42
2023-01-10T22:44:34.880Z,1.70
2023-01-10T22:47:02.439Z,1.95
2023-01-10T22:49:29.973Z,1.83
2023-01-10T22:51:57.491Z,1.77
2023-01-10T22:54:25.059Z,1.85
2023-01-10T22:56:52.641Z,1.58
2023-01-10T22:59:20.167Z,1.77
2023-01-10T23:01:47.879Z,1.60
2023-01-10T23:04:17.638Z,1.85
2023-01-10T23:06:45.283Z,1.33
2023-01-10T23:09:12.896Z,1.33
2023-01-10T23:11:40.482Z,1.25
2023-01-10T23:14:08.006Z,1.25
2023-01-10T23:16:35.534Z,1.45
2023-01-10T23:19:03.195Z,1.60
2023-01-10T23:21:30.746Z,1.40
2023-01-10T23:23:58.355Z,1.65
2023-01-10T23:26:25.871Z,1.30
2023-01-10T23:28:53.424Z,1.40
2023-01-10T23:31:22.705Z,1.20
2023-01-10T23:33:50.880Z,1.50
2023-01-10T23:36:18.795Z,1.30
2023-01-10T23:38:46.476Z,1.40
2023-01-10T23:41:14.066Z,1.48
2023-01-10T23:43:42.556Z,1.45
2023-01-10T23:46:10.299Z,1.40
2023-01-10T23:48:37.990Z,1.20
2023-01-10T23:51:07.685Z,1.20
2023-01-10T23:53:35.292Z,1.42
2023-01-10T23:56:13.192Z,1.27
2023-01-10T23:58:41.055Z,1.10
